arxmliv
arxmliv build tool
 
KWARC group
LaTeXML
About
   
 

Detailed info

Back to Homepage

List of missing_macros

No. Date Filename num_warningnum_errornum_xmargok_xmargnum_xmathok_xmathMissing macros
119401 2013-03-08 12:38:22 /0603/hep-ex.0603019 3020000[\abstracts]; 1 missing file[ws.sty].
119402 2013-03-08 12:38:17 /0603/hep-ex.0603005 5110000[\DashArrowLine, \dateenglish, \extrasenglish, \ArrowLine, \Text, \SetWidth, \SetScale, \DashLine, \geometry, \Gluon, \captionsenglish].
119403 2013-03-08 12:38:15 /0603/hep-ex.0603021 560000[\rauthor, \address, \sodtitle, \lat, \PACS, \rtitle].
119404 2013-03-08 12:37:59 /0603/hep-ex.0603013 1110000[\smaller].
119405 2013-03-08 12:37:57 /0603/hep-ex.0603007 2450000[\includegraphics, \ShortTitle, \email, \FullConference, \speaker]; 1 missing file[PoS.cls].
119406 2013-03-08 12:37:56 /0603/hep-ex.0603012 2310000[\smaller].
119407 2013-03-08 12:37:52 /0603/hep-ex.0603014 110000[\href].
119408 2013-03-08 12:37:36 /0603/gr-qc.0603120 1210000[\mathds].
119409 2013-03-08 12:37:31 /0603/gr-qc.0603133 17250000[\newsymbol].
119410 2013-03-08 12:37:03 /0603/gr-qc.0603119 2310000[\mathds].
119411 2013-03-08 12:36:19 /0603/gr-qc.0603085 4890000[\knotholesize, \vtwist, \xoverv, \sbendv, \zbendv, \xy, \endxy, \vcross]; 1 missing file[xy.sty].
119412 2013-03-08 12:36:07 /0603/gr-qc.0603118 0270000[\cf, \paperh, \fonttbl, \vieww, \f, \pard, \paperw, \mac, \colortbl, \cocoasubrtf, \blue, \ansicpg, \fswiss, \fs, \viewkind, \margl, \qnatural, \green, \viewh, \cocoartf, \rtf, \red, \margr, \ql, \pardirnatural, \tx, \fcharset].
119413 2013-03-08 12:36:06 /0603/gr-qc.0603030 22220000[\mercury, \leftmoon].
119414 2013-03-08 12:35:49 /0603/gr-qc.0603091 430000[\layoutstyle, \classification]; 1 missing file[{aipcheck}].
119415 2013-03-08 12:35:34 /0603/gr-qc.0603093 3710000[\address].
119416 2013-03-08 12:35:04 /0603/gr-qc.0603084 9710000[\preprint]; 1 missing file[CECS.cls].
119417 2013-03-08 12:34:57 /0603/gr-qc.0603081 4510000[\geometry].
119418 2013-03-08 12:34:45 /0603/gr-qc.0603083 1120000[\Abstract, \ArticleName, \ShortArticleName, \FirstPageHeading, \Address, \LastPageEnding, \Classification, \ArticleDates, \Author, \Email, \AuthorNameForHeading, \Keywords].
119419 2013-03-08 12:34:07 /0603/gr-qc.0603060 16600000[\cyrd, \cyrishrt, \CYRE, \CYRB, \CYRERY, \cyrl, \CYRISHRT, \CYRS, \cyrerev, \cyrv, \CYRCH, \CYRU, \cyryu, \cyrsftsn, \cyrk, \CYRT, \CYRL, \cyro, \cyrz, \cyrb, \cyrch, \CYRSHCH, \cyru, \cyra, \CYRK, \cyrsh, \CYRI, \CYRD, \CYRYA, \cyrf, \cyrg, \cyrs, \cyrn
119420 2013-03-08 12:33:38 /0603/gr-qc.0603079 1180000[Align, \Copyrightyear, \email, \firstpage, \printindex, \xymatrix, \ar]; 1 missing file[xy.sty].
119421 2013-03-08 12:33:23 /0603/gr-qc.0603068 650000[\extrasenglish, \dateenglish, \captionsenglish].
119422 2013-03-08 12:33:15 /0603/gr-qc.0603041 11310000[\theorembodyfont].
119423 2013-03-08 12:33:08 /0603/gr-qc.0603054 1810000[\psfrag].
119424 2013-03-08 12:33:08 /0603/gr-qc.0603057 5540000[\layoutstyle, \classification].
119425 2013-03-08 12:32:43 /0603/gr-qc.0603008 83120000[\psfrag].
119426 2013-03-08 12:32:27 /0603/gr-qc.0603035 1650000[\citen].
119427 2013-03-08 12:32:21 /0603/gr-qc.0603017 9820000[\QTR, \dprod].
119428 2013-03-08 12:32:15 /0603/gr-qc.0603009 2340000[\address, \email, \acknowledgements, \etal]; 1 missing file[eas.cls].
119429 2013-03-08 12:32:12 /0603/gr-qc.0603038 62110000[\layoutstyle, \classification].
119430 2013-03-08 12:31:53 /0603/gr-qc.0603014 2510000[{psfrags}].
119431 2013-03-08 12:31:25 /0603/cs.0603128 7030000[\QEDopen, {keywords}, {proof}]; 1 missing file[IEEEtran.cls].
119432 2013-03-08 12:30:59 /0603/cs.0603116 840000[\theappendix, \address, \authortag]; 1 missing file[sibgrapi.sty].
119433 2013-03-08 12:30:58 /0603/cs.0603123 1880000[\authorblockN, Align, {keywords}, {IEEEeqnarraybox*}, \QED, {proof}]; 3 missing files[mdwtab.sty, footnote.sty, IEEEtran.cls].
119434 2013-03-08 12:30:57 /0603/cs.0603131 520000[\authorblockN, \authorblockA]; 1 missing file[IEEEtran.cls].
119435 2013-03-08 12:30:52 /0603/cs.0603079 12260000[\theappendix, {definition}, \category, \terms, \newdef, {bottomstuff}]; 1 missing file[acmtrans2e.cls].
119436 2013-03-08 12:30:50 /0603/cs.0603064 15830000[{keywords}, \IEEEmembership, {proof}]; 1 missing file[IEEEtran.cls].
119437 2013-03-08 12:30:49 /0603/cs.0603124 1260000[\authorblockN, {proof}]; 5 missing files[pst-text.sty, mdwtab.sty, footnote.sty, IEEEtran.cls, pst-3d.sty].
119438 2013-03-08 12:30:34 /0603/cs.0603132 010000[\setstretch].
119439 2013-03-08 12:30:25 /0603/cs.0603096 2930000[{keywords}, \IEEEmembership, \IEEEoverridecommandlockouts]; 1 missing file[IEEEtran.cls].
119440 2013-03-08 12:30:25 /0603/cs.0603122 1940000[\BoxedEPSF, \SetRokickiEPSFSpecial, \HideDisplacementBoxes]; 1 missing file[boxedeps.tex].
119441 2013-03-08 12:30:07 /0603/cs.0603108 7160000[\ElseIf, \KwData, {algorithm}, \uIf, \KwOut, \While, \For, \If, \lForAll, \KwIn, \ForAll, \BlankLine, \tcp].
119442 2013-03-08 12:30:05 /0603/cs.0603082 1710000[\mathinner].
119443 2013-03-08 12:30:05 /0603/cs.0603084 2540000[\nicefrac, Align, {MAT}]; 1 missing file[easymat.sty].
119444 2013-03-08 12:29:52 /0603/cs.0603025 127130000[\qed, \FORALL, \terms, \EXISTS, {bottomstuff}, \keywords, {definition}, {example}, {claim}, \category, \SUCHTHAT, {proof}, \newdef]; 1 missing file[acmtrans2m.cls].
119445 2013-03-08 12:29:42 /0603/cs.0603089 620000[\@end@institute].
119446 2013-03-08 12:29:39 /0603/cs.0603065 960000[\authorblockN, {keywords}, {comment}, \authorblockA, \appendices, {proof}]; 1 missing file[IEEEtran.cls].
119447 2013-03-08 12:29:31 /0603/cs.0603094 1130000[\address, \name]; 1 missing file[shadow.sty].
119448 2013-03-08 12:29:10 /0603/cs.0603077 0110000[\conferenceinfo, \affaddr, \numberofauthors, \terms, \alignauthor, \crdata, \subtitle, \CopyrightYear, \email, \category]; 1 missing file[pslatex.sty].
119449 2013-03-08 12:29:02 /0603/cs.0603075 020000[\barenote]; 1 missing file[barenote.sty].
119450 2013-03-08 12:28:48 /0603/cs.0603027 7770000[\authorblockN, {keywords}, \PARstart, \IEEEmembership, {proof}, \appendices]; 2 missing files[IEEEtran.cls, ot2.fontmap].
119451 2013-03-08 12:28:48 /0603/cs.0603062 2180000[{grammar}, \nth, {bytefield}, \authorrefmark, \authorblockA, \bitheader, \endwordgroupr, \wordbox, \authorblockN, \skippedwords, Align, \wordgroupr, \bitbox]; 4 missing files[bytefield.sty, IEEEtran.cls, bnf.sty, nth.sty].
119452 2013-03-08 12:28:47 /0603/cs.0603066 640000[\authorblockN, {comment}, \authorblockA, {proof}]; 1 missing file[IEEEtran.cls].
119453 2013-03-08 12:28:34 /0603/cs.0603013 18160000[\xymatrix, \ar]; 1 missing file[xy.sty].
119454 2013-03-08 12:28:23 /0603/cs.0603040 160000[\extrasenglish, {keywords}, {comment}, {proof}, \dateenglish, \captionsenglish]; 1 missing file[IEEEtran.cls].
119455 2013-03-08 12:28:19 /0603/cs.0603050 19110000[\fup, \andauthor, \keywords, \HideDisplacementBoxes, \BoxedEPSF, \frenchlangfalse, \address, \journal, \SetRokickiEPSFSpecial, \maketitlepage]; 2 missing files[boxedeps.tex, article-hermes.cls].
119456 2013-03-08 12:28:15 /0603/cs.0603071 1010000[\precneq].
119457 2013-03-08 12:28:04 /0603/cs.0603048 8110000[{algorithm}, \mathbb, \EuScript, \While, \dontprintsemicolon, \For, \chev, \lIf]; 1 missing file[wg06.sty].
119458 2013-03-08 12:27:57 /0603/cs.0603031 5060000[\authorblockN, \extrasenglish, \authorblockA, \geometry, \dateenglish, \captionsenglish]; 1 missing file[IEEEtran.cls].
119459 2013-03-08 12:27:54 /0603/cs.0603039 150000[\extrasenglish, {keywords}, {proof}, \dateenglish, \captionsenglish]; 1 missing file[IEEEtran.cls].
119460 2013-03-08 12:27:53 /0603/cs.0603028 2070000[\theappendix, \pstree, \psset, \TC, \TR]; 1 missing file[pst-tree.sty].
119461 2013-03-08 12:27:30 /0603/cs.0603007 620000[\authorblockN, \authorblockA]; 1 missing file[IEEEtran.cls].
119462 2013-03-08 12:27:22 /0603/cs.0603038 630000[\newcite, \summary]; 1 missing file[pgm.sty].
119463 2013-03-08 12:27:10 /0603/cond-mat.0603854 8110000[\savedata, \bicodritto, \bicornotondo, \dynj, \uene, \scostab, \deputato, \dataplot]; 3 missing files[pst-text.sty, graphpap.sty, pst-3d.sty].
119464 2013-03-08 12:27:10 /0603/cs.0603016 020000[\SubSection, \Section].
119465 2013-03-08 12:27:06 /0603/cond-mat.0603860 510000[\psfrag].
119466 2013-03-08 12:26:59 /0603/cs.0603003 010000[\captionsfrancais].
119467 2013-03-08 12:26:47 /0603/cs.0603004 110000[{keywords}]; 1 missing file[aeb02.cls].
119468 2013-03-08 12:26:13 /0603/cond-mat.0603836 350000[\kword, \abst, \inst, \mib, \citen].
119469 2013-03-08 12:26:08 /0603/cond-mat.0603834 1260000[\twofigures, \@affiliation, \onefigure].
119470 2013-03-08 12:26:02 /0603/cond-mat.0603820 1140000[\sgn, \affiliation, \drawline, {acknowledgements}].
119471 2013-03-08 12:25:52 /0603/cond-mat.0603828 750000[{addendum}, {methods}, {affiliations}]; 1 missing file[naturemodified.cls].
119472 2013-03-08 12:25:29 /0603/cond-mat.0603802 4100000[\NAME, \TITLE, \BY, \IN, \shortauthor, \@affiliation, \acknowledgments].
119473 2013-03-08 12:25:22 /0603/cond-mat.0603806 1010000[\psfrag].
119474 2013-03-08 12:25:16 /0603/cond-mat.0603819 650000[\@affiliation, \upd, \onefigure].
119475 2013-03-08 12:25:01 /0603/cond-mat.0603805 560000[\@affiliation, \onefigure].
119476 2013-03-08 12:24:58 /0603/cond-mat.0603809 130000[\TCItag, \tag]; 1 missing file[aip.sty].
119477 2013-03-08 12:24:57 /0603/cond-mat.0603788 490000[\catchline, \tbl, \keywords, \colrule, {history}, \botrule, \revised, \toprule, \received].
119478 2013-03-08 12:24:52 /0603/cond-mat.0603792 1310000[\boldsymbol].
119479 2013-03-08 12:24:46 /0603/cond-mat.0603790 390000[\dates, \volnumpagesyear, \authorsthree, \authorsone, \keywords, \affiliationthree, \affiliationone, \authorstwo, \affiliationtwo]; 1 missing file[newFNLstyle.cls].
119480 2013-03-08 12:24:04 /0603/cond-mat.0603759 910000[\theappendix].
119481 2013-03-08 12:23:45 /0603/cond-mat.0603777 6120000[\twofigures, \@affiliation, \onefigure].
119482 2013-03-08 12:23:42 /0603/cond-mat.0603758 030000[\extrasenglish, \dateenglish, \captionsenglish].
119483 2013-03-08 12:23:37 /0603/cond-mat.0603748 040000[\extrasenglish, \dateenglish, \captionsenglish]; 1 missing file[pslatex.sty].
119484 2013-03-08 12:23:30 /0603/cond-mat.0603747 610000[\psfrag].
119485 2013-03-08 12:23:24 /0603/cond-mat.0603732 030000[\extrasenglish, \dateenglish, \captionsenglish].
119486 2013-03-08 12:22:50 /0603/cond-mat.0603745 310000[\psfrag].
119487 2013-03-08 12:22:18 /0603/cond-mat.0603714 1020000[\tsum]; 1 missing file[aip.sty].
119488 2013-03-08 12:20:10 /0603/cond-mat.0603673 450000[\twoimages, \@affiliation, \onefigure].
119489 2013-03-08 12:20:04 /0603/cond-mat.0603656 060000[\Earth, \Venus, \Mars, \hexstar, \Aquarius]; 1 missing file[marvosym.sty].
119490 2013-03-08 12:19:32 /0603/cond-mat.0603637 18100000[\citeauthoryear, \abbrev, \institute, \runningtitle, {opening}, \includegraphics, \theendnotes, \abbreviations, \runningauthor]; 2 missing files[sprrefn.sty, nato.cls].
119491 2013-03-08 12:18:53 /0603/cond-mat.0603635 6100000[{turn}].
119492 2013-03-08 12:18:34 /0603/cond-mat.0603622 1220000[\epsfbox]; 1 missing file[epsfig].
119493 2013-03-08 12:17:59 /0603/cond-mat.0603623 3490000[\Real, \sodtitle, \dates, \lat, \rauthor, \sodauthor, \address, \PACS, \rtitle].
119494 2013-03-08 12:17:44 /0603/cond-mat.0603606 1180000[\kword, \abst, \inst, \citen].
119495 2013-03-08 12:17:14 /0603/cond-mat.0603602 150000[\kword, \abst, \inst, \recdate, \mib].
119496 2013-03-08 12:16:36 /0603/cond-mat.0603589 1200000[\Issue, \inst, \Month, \Reviseddate, \Receiveddate, \DOIsuffix, \Volume, \pagespan, {SCfigure}, \subjclass, \Copyrightissue, \Dateposted, \Accepteddate, \Year].
119497 2013-03-08 12:16:22 /0603/cond-mat.0603561 910000[\psfrag].
119498 2013-03-08 12:16:18 /0603/cond-mat.0603451 81310000[\Issue, \inst, \Month, \DOIsuffix, \Volume, \keywords, \pagespan, {SCfigure}, \Copyrightissue, \subjclass, \Year].
119499 2013-03-08 12:15:43 /0603/cond-mat.0603556 3640000[\lb, \twoimages, \fext, {empheq}, \onefigure, \email, \empheqlbrace, \lperp, \@affiliation, \kb, \ave, \etal, \pd, \abs, \td, \lp, \lpar, \vect, \e, Align, \tf, \fpre, \rperp]; 1 missing file[macros.sty].
119500 2013-03-08 12:15:40 /0603/cond-mat.0603531 030000[\extrasenglish, \dateenglish, \captionsenglish].
119501 2013-03-08 12:15:30 /0603/cond-mat.0603558 110000[\unit].
119502 2013-03-08 12:14:23 /0603/cond-mat.0603471 810000[\mathds].
119503 2013-03-08 12:13:53 /0603/cond-mat.0603526 1530000[\@affiliation].
119504 2013-03-08 12:13:48 /0603/cond-mat.0603507 360000[\citenum, \authorinfo, {turn}, \skiplinehalf, \acknowledgments, \keywords]; 1 missing file[spie.cls].
119505 2013-03-08 12:13:20 /0603/cond-mat.0603503 060000[\@affiliation].
119506 2013-03-08 12:13:02 /0603/cond-mat.0603484 42150000[\shorttitle, \institute]; 1 missing file[epl_ARC.cls].
119507 2013-03-08 12:12:09 /0603/cond-mat.0603426 1530000[\theappendix].
119508 2013-03-08 12:11:41 /0603/cond-mat.0603452 060000[\@affiliation].
119509 2013-03-08 12:11:26 /0603/cond-mat.0603425 1050000[\kword, \abst, \inst, \recdate, \citen].
119510 2013-03-08 12:11:02 /0603/cond-mat.0603391 1210000[\FloatBarrier].
119511 2013-03-08 12:11:00 /0603/cond-mat.0603427 030000[\extrasenglish, \dateenglish, \captionsenglish].
119512 2013-03-08 12:10:20 /0603/cond-mat.0603399 110000[\unit].
119513 2013-03-08 12:10:15 /0603/cond-mat.0603406 810000[\theappendix].
119514 2013-03-08 12:10:09 /0603/cond-mat.0603341 146540000[\fmfrightn, \fmf, \fmflabel, \fmftop, \setcapwidth, \fmfv, \fmfbottomn, {fmfgraph*}, \fmfframe, \thechapter, \fmfleftn, \fmfleft, \thechapter@ID, \setbibpreamble, \fmftopn, \fmfright, \originalTeX, \fmffixed, \mainmatter, \backmatter, {fmffile}, \fmffree
119515 2013-03-08 12:09:59 /0603/cond-mat.0603385 2060000[\psfrag].
119516 2013-03-08 12:09:52 /0603/cond-mat.0603407 030000[\extrasenglish, \dateenglish, \captionsenglish].
119517 2013-03-08 12:09:37 /0603/cond-mat.0603388 150000[\authorinfo, \skiplinehalf, \acknowledgments, \keywords, \supit]; 1 missing file[spie.cls].
119518 2013-03-08 12:09:26 /0603/cond-mat.0603377 050000[\address, \pacs].
119519 2013-03-08 12:09:24 /0603/cond-mat.0603370 610000[\psfrag].
119520 2013-03-08 12:09:06 /0603/cond-mat.0603373 410000[\mathds].
119521 2013-03-08 12:08:58 /0603/cond-mat.0603371 130000[\@affiliation, \onefigure].
119522 2013-03-08 12:08:51 /0603/cond-mat.0603358 010000[\@end@institute].
119523 2013-03-08 12:08:24 /0603/cond-mat.0603364 390000[\sodauthor, \rauthor, \address, \sodtitle, \dates, \lat, \PACS, \ch, \rtitle].
119524 2013-03-08 12:08:23 /0603/cond-mat.0603337 5350000[\kword, \abst, \inst, \citen]; 1 missing file[appa].
119525 2013-03-08 12:07:02 /0603/cond-mat.0603310 1870000[\kword, \abst, \inst, \recdate, \acknowledgements].
119526 2013-03-08 12:06:47 /0603/cond-mat.0603332 030000[\extrasenglish, \dateenglish, \captionsenglish].
119527 2013-03-08 12:06:33 /0603/cond-mat.0603306 0110000[\extrasenglish, \citeyear, \possessivecite, \comment, \citeasnoun, \dateenglish, \captionsenglish].
119528 2013-03-08 12:06:27 /0603/cond-mat.0603250 6320000[\paragraphfont]; 1 missing file[parskip.sty].
119529 2013-03-08 12:04:16 /0603/cond-mat.0603252 910000[\nicefrac].
119530 2013-03-08 12:03:59 /0603/cond-mat.0603243 1760000[\add, \tit, {theo}, {lem}, {defi}]; 1 missing file[pack.sty].
119531 2013-03-08 12:03:26 /0603/cond-mat.0603228 040000[\@affiliation, \onefigure].
119532 2013-03-08 12:01:59 /0603/cond-mat.0603205 030000[\@affiliation].
119533 2013-03-08 12:01:51 /0603/cond-mat.0603208 940000[{keywords}, \PARstart, \IEEEpeerreviewmaketitle, \IEEEmembership]; 1 missing file[IEEEtran.cls].
119534 2013-03-08 12:01:38 /0603/astro-ph.0603706 510000[\theappendix].
119535 2013-03-08 12:01:13 /0603/cond-mat.0603183 230000[\extrasenglish, \dateenglish, \captionsenglish].
119536 2013-03-08 12:01:12 /0603/cond-mat.0603188 2980000[\@affiliation, \upd, \onefigure, \etal, \acro].
119537 2013-03-08 12:00:16 /0603/cond-mat.0603147 3450000[{acknowledgments}, \kword, \abst, \inst, \citen].
119538 2013-03-08 11:59:04 /0603/cond-mat.0603101 1210000[\psfrag].
119539 2013-03-08 11:58:13 /0603/cond-mat.0603128 020000[\PACS]; 1 missing file[size11.clo.sty].
119540 2013-03-08 11:57:22 /0603/cond-mat.0603093 2020000[\mathds].
119541 2013-03-08 11:56:47 /0603/cond-mat.0603092 610000[\theappendix].
119542 2013-03-08 11:56:30 /0603/cond-mat.0603070 4940000[\kword, \abst, \inst, \citen].
119543 2013-03-08 11:55:46 /0603/cond-mat.0603063 0170000[\Issue, {vchtable}, \inst, \Month, \Reviseddate, \Receiveddate, \DOIsuffix, \Volume, \keywords, \vchcaption, \pagespan, \subjclass, {vchfigure}, \Dateposted, \Year, \Accepteddate, {acknowledgement}].
119544 2013-03-08 11:55:36 /0603/cond-mat.0603072 430000[\kword, \abst, \inst].
119545 2013-03-08 11:55:33 /0603/cond-mat.0603066 830000[\kword, \abst, \inst].
119546 2013-03-08 11:54:43 /0603/cond-mat.0603043 030000[\extrasenglish, \dateenglish, \captionsenglish].
119547 2013-03-08 11:54:01 /0603/cond-mat.0603052 2150000[\Issue, \inst, \Month, \Reviseddate, \Receiveddate, \DOIsuffix, \Volume, \pagespan, {SCfigure}, \subjclass, \Dateposted, \Year, \Accepteddate, {acknowledgement}].
119548 2013-03-08 11:53:36 /0603/cond-mat.0603038 030000[\extrasenglish, \dateenglish, \captionsenglish].
119549 2013-03-08 11:53:28 /0603/cond-mat.0603008 1640000[\kword, \abst, \inst, \recdate].
119550 2013-03-08 11:53:26 /0603/cond-mat.0603039 840000[\kword, \abst, \inst, \recdate].
119551 2013-03-08 11:53:00 /0603/cond-mat.0603020 1510000[\un, \@affiliation, \onefigure, \chem, \etal].
119552 2013-03-08 11:52:48 /0603/cond-mat.0603027 910000[\mathlarger].
119553 2013-03-08 11:52:29 /0603/cond-mat.0603011 360000[\@affiliation, \onefigure].
119554 2013-03-08 11:52:23 /0603/cond-mat.0603012 2140000[\kword, \abst, \inst, \recdate].
119555 2013-03-08 11:51:07 /0603/astro-ph.0603847 040000[{theacknowledgments}, \layoutstyle, \tablehead, \classification].
119556 2013-03-08 11:50:21 /0603/astro-ph.0603852 380000[\presenter, \newauthor, {overpic}, \psfrag]; 1 missing file[icrc29.cls].
119557 2013-03-08 11:49:53 /0603/astro-ph.0603841 030000[\extrasenglish, \dateenglish, \captionsenglish].
119558 2013-03-08 11:49:50 /0603/astro-ph.0603829 4520000[\psfig]; 1 missing file[psfig.tex].
119559 2013-03-08 11:49:47 /0603/astro-ph.0603843 1180000[\apj, \apjl, \nat, \aap, \micron, \procspie, \Accepted, \KeyWords, \aj, \altaffilmark, \Received, \mnras, \apjs, \FigureFile, \altaffiltext, \SetRunningHead]; 1 missing file[pasj00.cls].
119560 2013-03-08 11:49:31 /0603/astro-ph.0603830 310000[\psfrag].
119561 2013-03-08 11:49:05 /0603/astro-ph.0603834 0200000[\affil, \apj, \citep, \altaffilmark, \apjs, \pasp, \citet, \acknowledgements, \plottwo]; 1 missing file[asp2004.sty].
119562 2013-03-08 11:48:57 /0603/astro-ph.0603816 130000[{theacknowledgments}, \layoutstyle, \classification].
119563 2013-03-08 11:48:50 /0603/astro-ph.0603820 020000[\layoutstyle, \classification].
119564 2013-03-08 11:48:36 /0603/astro-ph.0603825 760000[\mnras, \apj, \aj, \aap, \nat]; 1 missing file[astrojournals.sty].
119565 2013-03-08 11:47:51 /0603/astro-ph.0603778 1110000[\theappendix].
119566 2013-03-08 11:47:01 /0603/astro-ph.0603783 5340000[{sidewaystable*}].
119567 2013-03-08 11:45:46 /0603/astro-ph.0603767 1210000[\theappendix].
119568 2013-03-08 11:45:30 /0603/astro-ph.0603765 020000[\varSigma, \varOmega].
119569 2013-03-08 11:45:14 /0603/astro-ph.0603768 280000[\firstsection, \editors, \affiliation, \jname, \pagerange, \keywords, \volume, \pubyear]; 1 missing file[iaus.cls].
119570 2013-03-08 11:45:14 /0603/astro-ph.0603769 130000[\affil, \degr, \keywords]; 1 missing file[XrU2005.cls].
119571 2013-03-08 11:45:10 /0603/astro-ph.0603771 3100000[{acknowledgments}, \editors, \affiliation, \keywords, \volume, \firstsection, \pagerange, \jname, \pubyear, \etal]; 1 missing file[iaus.cls].
119572 2013-03-08 11:45:07 /0603/astro-ph.0603760 030000[{theacknowledgments}, \layoutstyle, \classification].
119573 2013-03-08 11:45:02 /0603/astro-ph.0603763 2160000[\inst, \accepted, \Month, \publonline, \email, \titlerunning, \fnmsep, \authorrunning, \received, \Issue, \Yearsubmission, \institute, \Yearpublication, \Volume, \Pagespan, \acknowledgements].
119574 2013-03-08 11:44:41 /0603/astro-ph.0603735 310000[\theappendix].
119575 2013-03-08 11:44:41 /0603/astro-ph.0603762 030000[\layoutstyle, \classification]; 1 missing file[{aipcheck}].
119576 2013-03-08 11:44:31 /0603/astro-ph.0603736 310000[\theappendix].
119577 2013-03-08 11:44:04 /0603/astro-ph.0603748 070000[\affil, \sun, Align, \tablenotetext, \plotone, \tableline]; 1 missing file[asp2004.sty].
119578 2013-03-08 11:43:41 /0603/astro-ph.0603737 1310000[\affil, \plottwo]; 1 missing file[asp2004.sty].
119579 2013-03-08 11:43:30 /0603/astro-ph.0603682 4510000[\theappendix].
119580 2013-03-08 11:43:24 /0603/astro-ph.0603731 090000[\apjs, \mnras, \apj, \pasp, \apss, \apjl, \nat, \aap]; 1 missing file[aas_macros.sty].
119581 2013-03-08 11:43:24 /0603/astro-ph.0603744 050000[\sun, \affil, \tableline, \acknowledgements]; 1 missing file[asp2004.sty].
119582 2013-03-08 11:43:15 /0603/astro-ph.0603726 0130000[\indexauthor, \boldabstract, \suppressfulladdresses, \dateenglish, \altaffilmark, \extrasenglish, \SetYear, \listofauthors, \email, \SetConfTitle, \addkeyword, \altaffiltext, \captionsenglish].
119583 2013-03-08 11:43:12 /0603/astro-ph.0603734 010000[\theappendix].
119584 2013-03-08 11:43:05 /0603/astro-ph.0603699 27810000[\tableheadfrac].
119585 2013-03-08 11:42:57 /0603/astro-ph.0603715 2220000[\arcmin, \addresstext, \apj, \atel, \aap, \journalinfo, \address, \journal, \email, \shorttitle, \pasp, \reference, \arcsec, \araa, \etal, \shortauthor, \apss, \la, \keywords, \akcnowledgements, \submitted, \pazh]; 1 missing file[pazhastl.cls].
119586 2013-03-08 11:42:41 /0603/astro-ph.0603720 210000[\affil]; 1 missing file[esapub2005.cls].
119587 2013-03-08 11:42:28 /0603/astro-ph.0603711 2950000[\includegraphics, \affil]; 1 missing file[proto.cls].
119588 2013-03-08 11:42:20 /0603/astro-ph.0603710 2100000[\inst, \mailto, \institute, \offprints, \keywords, \email, \volnopage, \titlerunning, \authorrunning, {acknowledgements}]; 1 missing file[cjaa.cls].
119589 2013-03-08 11:42:13 /0603/astro-ph.0603700 1810000[\theappendix].
119590 2013-03-08 11:41:47 /0603/astro-ph.0603695 0150000[\resumen, \indexauthor, \shortauthor, \suppressfulladdresses, \dateenglish, \altaffilmark, \extrasenglish, \SetYear, \listofauthors, \shorttitle, \SetConfTitle, \addkeyword, \altaffiltext, \acknowledgements, \captionsenglish].
119591 2013-03-08 11:41:34 /0603/astro-ph.0603703 030000[\extrasenglish, \dateenglish, \captionsenglish].
119592 2013-03-08 11:41:23 /0603/astro-ph.0603693 2110000[\theappendix].
119593 2013-03-08 11:40:42 /0603/astro-ph.0603674 020000[\theappendix]; 1 missing file[mathtext.sty].
119594 2013-03-08 11:40:42 /0603/astro-ph.0603679 030000[\affil, \acknowledgements]; 1 missing file[asp2004.sty].
119595 2013-03-08 11:40:39 /0603/astro-ph.0603678 020000[\affil]; 1 missing file[asp2004.sty].
119596 2013-03-08 11:40:32 /0603/astro-ph.0603666 1070000[\comby, {history}, \cdash, \revised, \keywords, \received]; 1 missing file[ws.sty].
119597 2013-03-08 11:40:06 /0603/astro-ph.0603673 16130000[\includegraphics, \affil, \ga, \resizebox, \la]; 1 missing file[proto.cls].
119598 2013-03-08 11:40:02 /0603/astro-ph.0603651 10260000[\tablecols, \ibidrule, \tabnotemark, \extrasenglish, \adjustfinalcols, \shorttitle, \email, \toprule, \bottomrule, \indexauthor, \resumen, \nodata, \midrule, \shortauthor, \tabnotetext, \altaffilmark, \dateenglish, \listofauthors, \ion, \addkeyword, \alt
119599 2013-03-08 11:39:57 /0603/astro-ph.0603658 210000[\na].
119600 2013-03-08 11:39:45 /0603/astro-ph.0603657 050000[\affil, \citep, \citet, \ga]; 1 missing file[asp2004.sty].
<<< >>>

[0] [200] [400] [600] [800] [1000] [1200] [1400] [1600] [1800] [2000] [2200] [2400] [2600] [2800] [3000] [3200] [3400] [3600] [3800] [4000] [4200] [4400] [4600] [4800] [5000] [5200] [5400] [5600] [5800] [6000] [6200] [6400] [6600] [6800] [7000] [7200] [7400] [7600] [7800] [8000] [8200] [8400] [8600] [8800] [9000] [9200] [9400] [9600] [9800] [10000] [10200] [10400] [10600] [10800] [11000] [11200] [11400] [11600] [11800] [12000] [12200] [12400] [12600] [12800] [13000] [13200] [13400] [13600] [13800] [14000] [14200] [14400] [14600] [14800] [15000] [15200] [15400] [15600] [15800] [16000] [16200] [16400] [16600] [16800] [17000] [17200] [17400] [17600] [17800] [18000] [18200] [18400] [18600] [18800] [19000] [19200] [19400] [19600] [19800] [20000] [20200] [20400] [20600] [20800] [21000] [21200] [21400] [21600] [21800] [22000] [22200] [22400] [22600] [22800] [23000] [23200] [23400] [23600] [23800] [24000] [24200] [24400] [24600] [24800] [25000] [25200] [25400] [25600] [25800] [26000] [26200] [26400] [26600] [26800] [27000] [27200] [27400] [27600] [27800] [28000] [28200] [28400] [28600] [28800] [29000] [29200] [29400] [29600] [29800] [30000] [30200] [30400] [30600] [30800] [31000] [31200] [31400] [31600] [31800] [32000] [32200] [32400] [32600] [32800] [33000] [33200] [33400] [33600] [33800] [34000] [34200] [34400] [34600] [34800] [35000] [35200] [35400] [35600] [35800] [36000] [36200] [36400] [36600] [36800] [37000] [37200] [37400] [37600] [37800] [38000] [38200] [38400] [38600] [38800] [39000] [39200] [39400] [39600] [39800] [40000] [40200] [40400] [40600] [40800] [41000] [41200] [41400] [41600] [41800] [42000] [42200] [42400] [42600] [42800] [43000] [43200] [43400] [43600] [43800] [44000] [44200] [44400] [44600] [44800] [45000] [45200] [45400] [45600] [45800] [46000] [46200] [46400] [46600] [46800] [47000] [47200] [47400] [47600] [47800] [48000] [48200] [48400] [48600] [48800] [49000] [49200] [49400] [49600] [49800] [50000] [50200] [50400] [50600] [50800] [51000] [51200] [51400] [51600] [51800] [52000] [52200] [52400] [52600] [52800] [53000] [53200] [53400] [53600] [53800] [54000] [54200] [54400] [54600] [54800] [55000] [55200] [55400] [55600] [55800] [56000] [56200] [56400] [56600] [56800] [57000] [57200] [57400] [57600] [57800] [58000] [58200] [58400] [58600] [58800] [59000] [59200] [59400] [59600] [59800] [60000] [60200] [60400] [60600] [60800] [61000] [61200] [61400] [61600] [61800] [62000] [62200] [62400] [62600] [62800] [63000] [63200] [63400] [63600] [63800] [64000] [64200] [64400] [64600] [64800] [65000] [65200] [65400] [65600] [65800] [66000] [66200] [66400] [66600] [66800] [67000] [67200] [67400] [67600] [67800] [68000] [68200] [68400] [68600] [68800] [69000] [69200] [69400] [69600] [69800] [70000] [70200] [70400] [70600] [70800] [71000] [71200] [71400] [71600] [71800] [72000] [72200] [72400] [72600] [72800] [73000] [73200] [73400] [73600] [73800] [74000] [74200] [74400] [74600] [74800] [75000] [75200] [75400] [75600] [75800] [76000] [76200] [76400] [76600] [76800] [77000] [77200] [77400] [77600] [77800] [78000] [78200] [78400] [78600] [78800] [79000] [79200] [79400] [79600] [79800] [80000] [80200] [80400] [80600] [80800] [81000] [81200] [81400] [81600] [81800] [82000] [82200] [82400] [82600] [82800] [83000] [83200] [83400] [83600] [83800] [84000] [84200] [84400] [84600] [84800] [85000] [85200] [85400] [85600] [85800] [86000] [86200] [86400] [86600] [86800] [87000] [87200] [87400] [87600] [87800] [88000] [88200] [88400] [88600] [88800] [89000] [89200] [89400] [89600] [89800] [90000] [90200] [90400] [90600] [90800] [91000] [91200] [91400] [91600] [91800] [92000] [92200] [92400] [92600] [92800] [93000] [93200] [93400] [93600] [93800] [94000] [94200] [94400] [94600] [94800] [95000] [95200] [95400] [95600] [95800] [96000] [96200] [96400] [96600] [96800] [97000] [97200] [97400] [97600] [97800] [98000] [98200] [98400] [98600] [98800] [99000] [99200] [99400] [99600] [99800] [100000] [100200] [100400] [100600] [100800] [101000] [101200] [101400] [101600] [101800] [102000] [102200] [102400] [102600] [102800] [103000] [103200] [103400] [103600] [103800] [104000] [104200] [104400] [104600] [104800] [105000] [105200] [105400] [105600] [105800] [106000] [106200] [106400] [106600] [106800] [107000] [107200] [107400] [107600] [107800] [108000] [108200] [108400] [108600] [108800] [109000] [109200] [109400] [109600] [109800] [110000] [110200] [110400] [110600] [110800] [111000] [111200] [111400] [111600] [111800] [112000] [112200] [112400] [112600] [112800] [113000] [113200] [113400] [113600] [113800] [114000] [114200] [114400] [114600] [114800] [115000] [115200] [115400] [115600] [115800] [116000] [116200] [116400] [116600] [116800] [117000] [117200] [117400] [117600] [117800] [118000] [118200] [118400] [118600] [118800] [119000] [119200] [119400] [119600] [119800] [120000] [120200] [120400] [120600] [120800] [121000] [121200] [121400] [121600] [121800] [122000] [122200] [122400] [122600] [122800] [123000] [123200] [123400] [123600] [123800] [124000] [124200] [124400] [124600] [124800] [125000] [125200] [125400] [125600] [125800] [126000] [126200] [126400] [126600] [126800] [127000] [127200] [127400] [127600] [127800] [128000] [128200] [128400] [128600] [128800] [129000] [129200] [129400] [129600] [129800] [130000] [130200] [130400] [130600] [130800] [131000] [131200] [131400] [131600] [131800] [132000] [132200] [132400] [132600] [132800] [133000] [133200] [133400] [133600] [133800] [134000] [134200] [134400] [134600] [134800] [135000] [135200] [135400] [135600] [135800] [136000] [136200] [136400] [136600] [136800] [137000] [137200] [137400] [137600] [137800] [138000] [138200] [138400] [138600] [138800] [139000] [139200] [139400] [139600] [139800] [140000] [140200] [140400] [140600] [140800] [141000] [141200] [141400] [141600] [141800] [142000] [142200] [142400] [142600] [142800] [143000] [143200] [143400] [143600] [143800] [144000] [144200] [144400] [144600] [144800] [145000] [145200] [145400] [145600] [145800] [146000] [146200] [146400] [146600] [146800] [147000] [147200] [147400] [147600] [147800] [148000] [148200] [148400] [148600] [148800] [149000] [149200] [149400] [149600] [149800] [150000] [150200] [150400] [150600] [150800] [151000] [151200] [151400] [151600] [151800] [152000] [152200] [152400] [152600] [152800] [153000] [153200] [153400] [153600] [153800] [154000] [154200] [154400] [154600] [154800] [155000] [155200] [155400] [155600] [155800] [156000] [156200] [156400] [156600] [156800] [157000] [157200] [157400] [157600] [157800] [158000] [158200] [158400] [158600] [158800] [159000] [159200] [159400] [159600] [159800] [160000] [160200] [160400] [160600] [160800] [161000] [161200] [161400] [161600] [161800] [162000] [162200] [162400] [162600] [162800] [163000] [163200] [163400] [163600] [163800] [164000] [164200] [164400] [164600]
 
  The service has been written by
Heinrich Stamerjohanns